Elmira, New York
Current Conditions -  °F | °C
As of 11:08 PM on Thursday 27 Nov 2014 (Local Time) from KELM Reporting Station
Light Snow Light Snow  
Wind Chill: 29°   Ceiling: 3400
Heat Index: 29°   Visibility: 1.7mi
Dew Point: 26°   Wind: 0mph
Humidity: 89%   Direction: NA
Pressure: 30.06"   Gusts: NA
Location:  42.09°N, 76.8°W
Report Text: KELM 280408Z 00000KT 1 3/4SM -SN BR SCT028 BKN034 OVC042 M02/M03 A3006 RMK AO2 P0000 T10171033
Loading
Personal Weather Stations






























Interactive Weather Map New forecast layout! Learn more

10-Day Weather Forecast

Advertisements
Track Severe Weather on mobile